Station info - map view · info · telemetry · weather · raw · status · beacons · messages · bulletins · browse · moving · my account
Callsign, ship name or locator: Clear       
It is possible to search using wildcards (*?) after a prefix. Example: OH*
APRS station KB1LPZ - show graphs
Map loading...
Mic-E message: En route
Location: 35°12.75' N 106°41.92' W - locator DM65PF61DA - show map - static map
2.4 miles Southwest bearing 233° from Rio Rancho, Sandoval County, New Mexico, United States [?]
9.2 miles North bearing 343° from Albuquerque, Bernalillo County, New Mexico, United States
10.4 miles Southwest bearing 215° from Enchanted Hills, Sandoval County, New Mexico, United States
Last position: 2018-06-19 07:58:39 EDT (5d 15h53m ago)
2018-06-19 05:58:39 MDT local time at Rio Rancho, United States [?]
Altitude: 5305 ft
Course: 22°
Speed: 8 MPH
Device: Kenwood: TM-D700 (rig)
Last path: KB1LPZ>SU1RWU via SANDIA*,WIDE2-2,qAO,KE7DRP-10 (good)
Positions stored: 10392
Stations near current position of KB1LPZ - show more
callsign distance last heard - EDT      callsign distance last heard - EDT
NM5MW-10.3 miles 300°2018-06-22 23:05:15 NM5MW-N0.3 miles 300°2018-06-12 15:04:37
N5OFQ-70.5 miles 96°2018-06-23 22:19:39 FW01360.9 miles 185°2018-06-24 23:51:25
KB1KVR1.1 miles 346°2018-06-19 09:43:56 KM5GH-111.2 miles 278°2018-05-29 18:51:46
KD5DKQ-91.4 miles 91°2018-05-26 18:04:38 KA5TAK B1.6 miles 100°2018-06-22 20:35:16
KA5TAK-B1.6 miles 100°2018-06-22 20:35:26 N2GJ1.8 miles 110°2018-06-23 17:46:17
KG5WPZ-31.9 miles 139°2018-06-23 15:16:18 KF5ZOK-102.1 miles 53°2018-06-21 00:46:51
NM5HD2.2 miles 70°2018-06-23 14:13:26 KA5TAK-52.8 miles 121°2018-06-24 01:51:39
KE5TOB-93.0 miles 101°2018-06-14 08:58:03 EW90893.1 miles 157°2018-06-24 23:50:43
W5ASM-93.1 miles 134°2018-06-24 19:55:25 KC6UQT3.3 miles 56°2018-06-24 09:47:06
N5GPN-93.3 miles 28°2018-06-24 23:27:12 DW63923.5 miles 173°2018-06-24 23:45:53
Stations which heard KB1LPZ directly on radio –
callsign pkts first heard - EDT last heard longest (tx => rx) longest at - EDT
RAVEN 2 2018-06-06 18:33:30 2018-06-06 19:13:03 DM75EA > DM64TX 38.9 miles 268° 2018-06-06 18:33:30
SANDIA 91 2018-06-06 18:36:31 2018-06-19 07:58:39 DM75DA > DM65SF 44.1 miles 289° 2018-06-06 18:36:31
SOKC 8 2018-06-06 10:18:54 2018-06-06 10:52:21 EM15HQ > EM15GJ 21.0 miles 193° 2018-06-06 10:18:54
KE5KUL 6 2018-06-06 14:48:14 2018-06-06 15:03:26 DM95DE > DM95BD 10.1 miles 252° 2018-06-06 14:48:14
N0KTA 1 2018-06-06 08:21:10 2018-06-06 08:21:10 EM17HH > EM17JN 17.7 miles 26° 2018-06-06 08:21:10
LAMOSC 1 2018-06-15 12:24:58 2018-06-15 12:24:58 DM65QD > DM65EG 55.3 miles 278° 2018-06-15 12:24:58
TESQUE 9 2018-06-06 17:53:59 2018-06-15 10:22:17 DM74NX > DM75CS 75.3 miles 319° 2018-06-06 17:53:59
TAPIA 5 2018-06-06 18:09:10 2018-06-06 19:37:16 DM65PC > DM75EC 60.7 miles 90° 2018-06-06 19:37:16
ELKMTN 7 2018-06-06 17:20:41 2018-06-06 18:12:13 DM75UB > DM75FS 86.4 miles 305° 2018-06-06 17:20:41
WALSH 8 2018-06-06 12:26:32 2018-06-06 12:50:44 EM05CF > EM04HX 29.2 miles 127° 2018-06-06 12:50:44
GRULKY 12 2018-06-06 15:12:34 2018-06-06 16:04:08 DM85WE > DM85OG 34.9 miles 276° 2018-06-06 15:12:34
EARC 1 2018-06-06 09:24:23 2018-06-06 09:24:23 EM16II > EM16BK 28.7 miles 280° 2018-06-06 09:24:23
PONCA 4 2018-06-06 08:51:05 2018-06-06 09:15:19 EM16HV > EM16JQ 16.5 miles 142° 2018-06-06 08:51:05
W5GDL-5 4 2018-06-06 10:06:49 2018-06-06 10:31:05 EM15HR > EM15FL 18.5 miles 197° 2018-06-06 10:06:49
K5RHD-10 14 2018-06-06 19:19:05 2018-06-06 20:07:32 DM65SB > DM65PC 14.0 miles 282° 2018-06-06 19:19:05
KE7DRP-10 7 2018-06-06 19:16:04 2018-06-15 11:35:21 DM65PE > DM65SB 17.5 miles 115° 2018-06-15 07:46:38

Only position packets which were originated by the station are shown here. The range statistics show some extra long hops, because some digipeaters do not correctly add themselves to the digipeater path. Please check the raw packets.
About this site
This page shows real-time information collected from the Automatic Position Reporting System Internet network (APRS-IS). APRS is used by amateur (ham) radio operators to transmit real-time position information, weather data, telemetry and messages over the radio. A vehicle equipped with a GPS receiver, a VHF transmitter or HF transceiver and a small computer device called a tracker transmits it's location, speed and course in a small data packet, which is then received by a nearby iGate receiving site which forwards the packet on the Internet. Systems connected to the Internet can send information on the APRS-IS without a radio transmitter, or collect and display information transmitted anywhere in the world.
FAQ · Blog · Discussion group · Linking to aprs.fi · AIS sites · Service status · Database statistics · Advertising on aprs.fi · Technical details · API · Change log · Planned changes · Credits and thanks · Terms Of Service · iPhone/iPad APRS